sensor_id;sensor_type;location;lat;lon;timestamp;temperature;humidity
22456;DHT22;11395;53.204;6.502;2023-08-31T00:00:49;22.50;94.70
22456;DHT22;11395;53.204;6.502;2023-08-31T00:03:17;22.50;94.20
22456;DHT22;11395;53.204;6.502;2023-08-31T00:08:10;22.50;91.40
22456;DHT22;11395;53.204;6.502;2023-08-31T00:10:37;22.50;92.20
22456;DHT22;11395;53.204;6.502;2023-08-31T00:13:05;22.40;92.40
22456;DHT22;11395;53.204;6.502;2023-08-31T00:15:32;22.40;93.20
22456;DHT22;11395;53.204;6.502;2023-08-31T00:18:01;22.50;94.10
22456;DHT22;11395;53.204;6.502;2023-08-31T00:20:30;22.40;95.60
22456;DHT22;11395;53.204;6.502;2023-08-31T00:22:57;22.40;96.40
22456;DHT22;11395;53.204;6.502;2023-08-31T00:25:24;22.40;94.90
22456;DHT22;11395;53.204;6.502;2023-08-31T00:27:50;22.40;94.60
22456;DHT22;11395;53.204;6.502;2023-08-31T00:30:20;22.40;94.10
22456;DHT22;11395;53.204;6.502;2023-08-31T00:35:16;22.40;91.90
22456;DHT22;11395;53.204;6.502;2023-08-31T00:37:43;22.30;91.80
22456;DHT22;11395;53.204;6.502;2023-08-31T00:40:09;22.30;93.50
22456;DHT22;11395;53.204;6.502;2023-08-31T00:45:07;22.30;92.60
22456;DHT22;11395;53.204;6.502;2023-08-31T00:47:33;22.30;92.40
22456;DHT22;11395;53.204;6.502;2023-08-31T00:50:00;22.30;92.50
22456;DHT22;11395;53.204;6.502;2023-08-31T00:52:27;22.30;93.50
22456;DHT22;11395;53.204;6.502;2023-08-31T00:54:54;22.20;93.00
22456;DHT22;11395;53.204;6.502;2023-08-31T00:57:20;22.30;94.20
22456;DHT22;11395;53.204;6.502;2023-08-31T01:07:48;22.20;91.20
22456;DHT22;11395;53.204;6.502;2023-08-31T01:10:25;22.20;92.10
22456;DHT22;11395;53.204;6.502;2023-08-31T01:13:00;22.10;93.60
22456;DHT22;11395;53.204;6.502;2023-08-31T01:17:59;22.10;95.20
22456;DHT22;11395;53.204;6.502;2023-08-31T01:20:32;22.00;95.30
22456;DHT22;11395;53.204;6.502;2023-08-31T01:23:02;22.00;95.00
22456;DHT22;11395;53.204;6.502;2023-08-31T01:25:31;22.10;96.40
22456;DHT22;11395;53.204;6.502;2023-08-31T01:28:02;22.00;95.00
22456;DHT22;11395;53.204;6.502;2023-08-31T01:30:30;22.00;95.80
22456;DHT22;11395;53.204;6.502;2023-08-31T01:32:57;21.90;95.60
22456;DHT22;11395;53.204;6.502;2023-08-31T01:35:23;21.90;95.50
22456;DHT22;11395;53.204;6.502;2023-08-31T01:37:57;22.00;95.20
22456;DHT22;11395;53.204;6.502;2023-08-31T01:43:13;21.90;95.00
22456;DHT22;11395;53.204;6.502;2023-08-31T01:45:40;21.90;94.80
22456;DHT22;11395;53.204;6.502;2023-08-31T01:48:07;21.90;94.80
22456;DHT22;11395;53.204;6.502;2023-08-31T01:50:36;21.80;94.40
22456;DHT22;11395;53.204;6.502;2023-08-31T01:53:02;21.90;93.90
22456;DHT22;11395;53.204;6.502;2023-08-31T01:55:28;21.80;92.50
22456;DHT22;11395;53.204;6.502;2023-08-31T01:57:54;21.80;92.90
22456;DHT22;11395;53.204;6.502;2023-08-31T02:00:26;21.90;94.90
22456;DHT22;11395;53.204;6.502;2023-08-31T02:02:52;21.80;94.50
22456;DHT22;11395;53.204;6.502;2023-08-31T02:07:45;21.90;95.00
22456;DHT22;11395;53.204;6.502;2023-08-31T02:10:11;21.80;94.60
22456;DHT22;11395;53.204;6.502;2023-08-31T02:12:37;21.80;96.20
22456;DHT22;11395;53.204;6.502;2023-08-31T02:15:04;21.70;96.00
22456;DHT22;11395;53.204;6.502;2023-08-31T02:17:32;21.70;96.20
22456;DHT22;11395;53.204;6.502;2023-08-31T02:19:58;21.60;96.10
22456;DHT22;11395;53.204;6.502;2023-08-31T02:22:25;21.70;94.20
22456;DHT22;11395;53.204;6.502;2023-08-31T02:24:51;21.70;93.80
22456;DHT22;11395;53.204;6.502;2023-08-31T02:27:18;21.70;93.30
22456;DHT22;11395;53.204;6.502;2023-08-31T02:29:44;21.60;91.80
22456;DHT22;11395;53.204;6.502;2023-08-31T02:32:10;21.70;92.80
22456;DHT22;11395;53.204;6.502;2023-08-31T02:34:36;21.60;92.70
22456;DHT22;11395;53.204;6.502;2023-08-31T02:37:05;21.60;92.40
22456;DHT22;11395;53.204;6.502;2023-08-31T02:39:31;21.60;92.70
22456;DHT22;11395;53.204;6.502;2023-08-31T02:41:57;21.60;93.10
22456;DHT22;11395;53.204;6.502;2023-08-31T02:44:23;21.60;92.50
22456;DHT22;11395;53.204;6.502;2023-08-31T02:46:49;21.50;91.50
22456;DHT22;11395;53.204;6.502;2023-08-31T02:49:16;21.60;91.80
22456;DHT22;11395;53.204;6.502;2023-08-31T02:51:42;21.50;93.30
22456;DHT22;11395;53.204;6.502;2023-08-31T02:54:08;21.50;94.10
22456;DHT22;11395;53.204;6.502;2023-08-31T02:56:34;21.50;95.10
22456;DHT22;11395;53.204;6.502;2023-08-31T02:59:00;21.50;94.40
22456;DHT22;11395;53.204;6.502;2023-08-31T03:01:26;21.40;93.70
22456;DHT22;11395;53.204;6.502;2023-08-31T03:03:53;21.50;94.10
22456;DHT22;11395;53.204;6.502;2023-08-31T03:08:47;21.50;90.50
22456;DHT22;11395;53.204;6.502;2023-08-31T03:11:14;21.40;90.80
22456;DHT22;11395;53.204;6.502;2023-08-31T03:13:41;21.40;91.10
22456;DHT22;11395;53.204;6.502;2023-08-31T03:16:08;21.40;91.20
22456;DHT22;11395;53.204;6.502;2023-08-31T03:18:34;21.40;91.10
22456;DHT22;11395;53.204;6.502;2023-08-31T03:21:00;21.40;91.30
22456;DHT22;11395;53.204;6.502;2023-08-31T03:23:28;21.40;91.30
22456;DHT22;11395;53.204;6.502;2023-08-31T03:25:56;21.30;92.20
22456;DHT22;11395;53.204;6.502;2023-08-31T03:28:26;21.30;93.80
22456;DHT22;11395;53.204;6.502;2023-08-31T03:30:56;21.30;93.80
22456;DHT22;11395;53.204;6.502;2023-08-31T03:33:22;21.30;94.00
22456;DHT22;11395;53.204;6.502;2023-08-31T03:35:49;21.30;94.90
22456;DHT22;11395;53.204;6.502;2023-08-31T03:38:15;21.30;94.60
22456;DHT22;11395;53.204;6.502;2023-08-31T03:40:41;21.30;95.90
22456;DHT22;11395;53.204;6.502;2023-08-31T03:43:07;21.20;93.90
22456;DHT22;11395;53.204;6.502;2023-08-31T03:45:34;21.30;95.20
22456;DHT22;11395;53.204;6.502;2023-08-31T03:48:01;21.30;95.20
22456;DHT22;11395;53.204;6.502;2023-08-31T03:50:28;21.20;93.60
22456;DHT22;11395;53.204;6.502;2023-08-31T03:52:54;21.20;94.00
22456;DHT22;11395;53.204;6.502;2023-08-31T03:55:20;21.20;93.70
22456;DHT22;11395;53.204;6.502;2023-08-31T03:57:47;21.20;93.60
22456;DHT22;11395;53.204;6.502;2023-08-31T04:00:17;21.20;93.90
22456;DHT22;11395;53.204;6.502;2023-08-31T04:02:43;21.30;92.80
22456;DHT22;11395;53.204;6.502;2023-08-31T04:05:12;21.50;93.60
22456;DHT22;11395;53.204;6.502;2023-08-31T04:07:43;21.60;92.80
22456;DHT22;11395;53.204;6.502;2023-08-31T04:10:09;21.70;94.70
22456;DHT22;11395;53.204;6.502;2023-08-31T04:12:35;21.70;92.10
22456;DHT22;11395;53.204;6.502;2023-08-31T04:15:01;21.80;92.10
22456;DHT22;11395;53.204;6.502;2023-08-31T04:17:30;21.90;92.10
22456;DHT22;11395;53.204;6.502;2023-08-31T04:19:56;22.10;91.90
22456;DHT22;11395;53.204;6.502;2023-08-31T04:22:22;22.20;91.50
22456;DHT22;11395;53.204;6.502;2023-08-31T04:24:48;22.40;91.40
22456;DHT22;11395;53.204;6.502;2023-08-31T04:27:14;22.50;91.40
22456;DHT22;11395;53.204;6.502;2023-08-31T04:29:40;22.60;91.00
22456;DHT22;11395;53.204;6.502;2023-08-31T04:32:06;22.70;90.90
22456;DHT22;11395;53.204;6.502;2023-08-31T04:34:33;22.80;90.60
22456;DHT22;11395;53.204;6.502;2023-08-31T04:36:59;22.90;90.70
22456;DHT22;11395;53.204;6.502;2023-08-31T04:39:25;23.00;90.50
22456;DHT22;11395;53.204;6.502;2023-08-31T04:41:52;23.00;90.40
22456;DHT22;11395;53.204;6.502;2023-08-31T04:44:18;23.10;90.20
22456;DHT22;11395;53.204;6.502;2023-08-31T04:46:45;23.20;90.40
22456;DHT22;11395;53.204;6.502;2023-08-31T04:49:11;23.20;90.60
22456;DHT22;11395;53.204;6.502;2023-08-31T04:51:37;23.30;90.90
22456;DHT22;11395;53.204;6.502;2023-08-31T04:54:05;23.30;90.80
22456;DHT22;11395;53.204;6.502;2023-08-31T04:56:32;23.30;91.70
22456;DHT22;11395;53.204;6.502;2023-08-31T04:58:59;23.30;91.20
22456;DHT22;11395;53.204;6.502;2023-08-31T05:01:25;23.30;91.10
22456;DHT22;11395;53.204;6.502;2023-08-31T05:03:52;23.40;91.00
22456;DHT22;11395;53.204;6.502;2023-08-31T05:06:18;23.40;90.50
22456;DHT22;11395;53.204;6.502;2023-08-31T05:08:44;23.40;90.90
22456;DHT22;11395;53.204;6.502;2023-08-31T05:11:10;23.40;90.10
22456;DHT22;11395;53.204;6.502;2023-08-31T05:13:36;23.40;90.00
22456;DHT22;11395;53.204;6.502;2023-08-31T05:16:03;23.50;90.80
22456;DHT22;11395;53.204;6.502;2023-08-31T05:18:29;23.50;90.70
22456;DHT22;11395;53.204;6.502;2023-08-31T05:20:56;23.60;90.60
22456;DHT22;11395;53.204;6.502;2023-08-31T05:23:22;23.60;90.50
22456;DHT22;11395;53.204;6.502;2023-08-31T05:25:48;23.70;90.00
22456;DHT22;11395;53.204;6.502;2023-08-31T05:28:14;23.80;90.40
22456;DHT22;11395;53.204;6.502;2023-08-31T05:30:50;23.80;90.20
22456;DHT22;11395;53.204;6.502;2023-08-31T05:33:20;23.90;91.50
22456;DHT22;11395;53.204;6.502;2023-08-31T05:35:48;23.90;91.20
22456;DHT22;11395;53.204;6.502;2023-08-31T05:38:14;24.10;90.60
22456;DHT22;11395;53.204;6.502;2023-08-31T05:40:41;24.00;90.70
22456;DHT22;11395;53.204;6.502;2023-08-31T05:43:15;24.10;90.90
22456;DHT22;11395;53.204;6.502;2023-08-31T05:45:42;24.20;93.00
22456;DHT22;11395;53.204;6.502;2023-08-31T05:48:08;24.20;93.10
22456;DHT22;11395;53.204;6.502;2023-08-31T05:50:35;24.20;88.70
22456;DHT22;11395;53.204;6.502;2023-08-31T05:53:03;24.30;90.40
22456;DHT22;11395;53.204;6.502;2023-08-31T05:55:30;24.30;89.20
22456;DHT22;11395;53.204;6.502;2023-08-31T05:57:56;24.40;89.50
22456;DHT22;11395;53.204;6.502;2023-08-31T06:00:22;24.40;89.80
22456;DHT22;11395;53.204;6.502;2023-08-31T06:02:49;24.50;90.40
22456;DHT22;11395;53.204;6.502;2023-08-31T06:05:15;24.50;87.00
22456;DHT22;11395;53.204;6.502;2023-08-31T06:07:44;24.60;85.70
22456;DHT22;11395;53.204;6.502;2023-08-31T06:10:10;24.60;86.50
22456;DHT22;11395;53.204;6.502;2023-08-31T06:12:37;24.70;85.80
22456;DHT22;11395;53.204;6.502;2023-08-31T06:15:03;24.70;85.50
22456;DHT22;11395;53.204;6.502;2023-08-31T06:17:29;24.70;85.10
22456;DHT22;11395;53.204;6.502;2023-08-31T06:19:55;24.70;86.90
22456;DHT22;11395;53.204;6.502;2023-08-31T06:22:22;24.70;87.40
22456;DHT22;11395;53.204;6.502;2023-08-31T06:24:50;24.60;87.80
22456;DHT22;11395;53.204;6.502;2023-08-31T06:27:18;24.60;88.80
22456;DHT22;11395;53.204;6.502;2023-08-31T06:29:44;24.60;89.60
22456;DHT22;11395;53.204;6.502;2023-08-31T06:32:10;24.70;89.40
22456;DHT22;11395;53.204;6.502;2023-08-31T06:34:36;24.70;89.40
22456;DHT22;11395;53.204;6.502;2023-08-31T06:37:03;24.80;87.80
22456;DHT22;11395;53.204;6.502;2023-08-31T06:39:29;24.80;89.30
22456;DHT22;11395;53.204;6.502;2023-08-31T06:41:55;24.90;88.70
22456;DHT22;11395;53.204;6.502;2023-08-31T06:44:30;24.80;87.80
22456;DHT22;11395;53.204;6.502;2023-08-31T06:46:56;24.80;90.50
22456;DHT22;11395;53.204;6.502;2023-08-31T06:49:23;24.80;88.30
22456;DHT22;11395;53.204;6.502;2023-08-31T06:51:50;24.80;89.50
22456;DHT22;11395;53.204;6.502;2023-08-31T06:54:16;24.60;88.30
22456;DHT22;11395;53.204;6.502;2023-08-31T06:56:42;24.70;88.50
22456;DHT22;11395;53.204;6.502;2023-08-31T06:59:08;24.70;88.30
22456;DHT22;11395;53.204;6.502;2023-08-31T07:01:34;24.70;87.80
22456;DHT22;11395;53.204;6.502;2023-08-31T07:04:00;24.70;88.90
22456;DHT22;11395;53.204;6.502;2023-08-31T07:06:27;24.70;89.30
22456;DHT22;11395;53.204;6.502;2023-08-31T07:08:53;24.70;90.00
22456;DHT22;11395;53.204;6.502;2023-08-31T07:11:19;24.70;89.70
22456;DHT22;11395;53.204;6.502;2023-08-31T07:13:45;24.70;89.00
22456;DHT22;11395;53.204;6.502;2023-08-31T07:16:11;24.70;89.60
22456;DHT22;11395;53.204;6.502;2023-08-31T07:18:37;24.70;89.90
22456;DHT22;11395;53.204;6.502;2023-08-31T07:21:03;24.60;89.30
22456;DHT22;11395;53.204;6.502;2023-08-31T07:23:34;24.60;87.80
22456;DHT22;11395;53.204;6.502;2023-08-31T07:26:00;24.60;89.80
22456;DHT22;11395;53.204;6.502;2023-08-31T07:28:27;24.60;90.00
22456;DHT22;11395;53.204;6.502;2023-08-31T07:31:04;24.60;90.20
22456;DHT22;11395;53.204;6.502;2023-08-31T07:33:31;24.60;91.10
22456;DHT22;11395;53.204;6.502;2023-08-31T07:35:59;24.50;90.30
22456;DHT22;11395;53.204;6.502;2023-08-31T07:38:26;24.50;90.70
22456;DHT22;11395;53.204;6.502;2023-08-31T07:40:53;24.50;90.20
22456;DHT22;11395;53.204;6.502;2023-08-31T07:43:19;24.50;90.10
22456;DHT22;11395;53.204;6.502;2023-08-31T07:45:45;24.50;90.30
22456;DHT22;11395;53.204;6.502;2023-08-31T07:48:11;24.50;90.00
22456;DHT22;11395;53.204;6.502;2023-08-31T07:50:40;24.60;90.20
22456;DHT22;11395;53.204;6.502;2023-08-31T07:53:07;24.70;90.90
22456;DHT22;11395;53.204;6.502;2023-08-31T07:55:33;24.80;90.30
22456;DHT22;11395;53.204;6.502;2023-08-31T07:58:01;25.00;90.30
22456;DHT22;11395;53.204;6.502;2023-08-31T08:00:27;25.10;89.60
22456;DHT22;11395;53.204;6.502;2023-08-31T08:02:54;25.30;88.20
22456;DHT22;11395;53.204;6.502;2023-08-31T08:05:20;25.40;88.50
22456;DHT22;11395;53.204;6.502;2023-08-31T08:07:46;25.50;88.70
22456;DHT22;11395;53.204;6.502;2023-08-31T08:10:13;25.50;87.80
22456;DHT22;11395;53.204;6.502;2023-08-31T08:12:41;25.60;89.10
22456;DHT22;11395;53.204;6.502;2023-08-31T08:15:11;25.60;89.40
22456;DHT22;11395;53.204;6.502;2023-08-31T08:17:38;25.70;89.00
22456;DHT22;11395;53.204;6.502;2023-08-31T08:20:06;25.70;88.40
22456;DHT22;11395;53.204;6.502;2023-08-31T08:22:33;25.70;89.60
22456;DHT22;11395;53.204;6.502;2023-08-31T08:24:59;25.70;87.80
22456;DHT22;11395;53.204;6.502;2023-08-31T08:27:25;25.70;89.00
22456;DHT22;11395;53.204;6.502;2023-08-31T08:29:51;25.70;88.10
22456;DHT22;11395;53.204;6.502;2023-08-31T08:32:18;25.70;87.40
22456;DHT22;11395;53.204;6.502;2023-08-31T08:34:44;25.70;88.10
22456;DHT22;11395;53.204;6.502;2023-08-31T08:37:10;25.70;89.50
22456;DHT22;11395;53.204;6.502;2023-08-31T08:39:36;25.70;88.00
22456;DHT22;11395;53.204;6.502;2023-08-31T08:42:04;25.70;89.60
22456;DHT22;11395;53.204;6.502;2023-08-31T08:44:32;25.70;88.00
22456;DHT22;11395;53.204;6.502;2023-08-31T08:47:00;25.70;89.30
22456;DHT22;11395;53.204;6.502;2023-08-31T08:49:27;25.60;89.80
22456;DHT22;11395;53.204;6.502;2023-08-31T08:51:54;25.60;88.50
22456;DHT22;11395;53.204;6.502;2023-08-31T08:54:22;25.60;89.60
22456;DHT22;11395;53.204;6.502;2023-08-31T08:56:48;25.60;88.90
22456;DHT22;11395;53.204;6.502;2023-08-31T08:59:14;25.70;88.00
22456;DHT22;11395;53.204;6.502;2023-08-31T09:01:40;25.80;88.80
22456;DHT22;11395;53.204;6.502;2023-08-31T09:04:09;25.70;87.40
22456;DHT22;11395;53.204;6.502;2023-08-31T09:06:35;25.70;89.10
22456;DHT22;11395;53.204;6.502;2023-08-31T09:09:02;25.60;88.30
22456;DHT22;11395;53.204;6.502;2023-08-31T09:11:28;25.40;89.90
22456;DHT22;11395;53.204;6.502;2023-08-31T09:13:56;25.40;88.50
22456;DHT22;11395;53.204;6.502;2023-08-31T09:16:27;25.30;90.10
22456;DHT22;11395;53.204;6.502;2023-08-31T09:18:55;25.40;88.30
22456;DHT22;11395;53.204;6.502;2023-08-31T09:21:22;25.50;89.50
22456;DHT22;11395;53.204;6.502;2023-08-31T09:23:56;25.70;89.30
22456;DHT22;11395;53.204;6.502;2023-08-31T09:26:24;25.80;88.30
22456;DHT22;11395;53.204;6.502;2023-08-31T09:28:50;25.70;85.70
22456;DHT22;11395;53.204;6.502;2023-08-31T09:31:17;25.70;91.30
22456;DHT22;11395;53.204;6.502;2023-08-31T09:33:51;25.60;88.00
22456;DHT22;11395;53.204;6.502;2023-08-31T09:36:19;25.40;88.90
22456;DHT22;11395;53.204;6.502;2023-08-31T09:38:46;25.60;89.60
22456;DHT22;11395;53.204;6.502;2023-08-31T09:41:12;25.50;88.00
22456;DHT22;11395;53.204;6.502;2023-08-31T09:43:39;25.60;88.70
22456;DHT22;11395;53.204;6.502;2023-08-31T09:46:05;25.60;88.90
22456;DHT22;11395;53.204;6.502;2023-08-31T09:48:32;25.60;90.50
22456;DHT22;11395;53.204;6.502;2023-08-31T09:50:58;25.60;90.00
22456;DHT22;11395;53.204;6.502;2023-08-31T09:53:29;25.50;90.40
22456;DHT22;11395;53.204;6.502;2023-08-31T09:55:57;25.40;90.60
22456;DHT22;11395;53.204;6.502;2023-08-31T09:58:23;25.40;91.50
22456;DHT22;11395;53.204;6.502;2023-08-31T10:00:51;25.40;89.20
22456;DHT22;11395;53.204;6.502;2023-08-31T10:03:17;25.60;90.70
22456;DHT22;11395;53.204;6.502;2023-08-31T10:05:45;25.30;90.10
22456;DHT22;11395;53.204;6.502;2023-08-31T10:08:11;25.30;91.50
22456;DHT22;11395;53.204;6.502;2023-08-31T10:10:38;25.30;88.30
22456;DHT22;11395;53.204;6.502;2023-08-31T10:13:06;25.10;88.70
22456;DHT22;11395;53.204;6.502;2023-08-31T10:15:33;25.30;88.90
22456;DHT22;11395;53.204;6.502;2023-08-31T10:18:00;25.00;88.90
22456;DHT22;11395;53.204;6.502;2023-08-31T10:20:27;24.90;89.50
22456;DHT22;11395;53.204;6.502;2023-08-31T10:23:07;24.90;88.80
22456;DHT22;11395;53.204;6.502;2023-08-31T10:26:02;24.90;90.30
22456;DHT22;11395;53.204;6.502;2023-08-31T10:28:29;24.90;90.30
22456;DHT22;11395;53.204;6.502;2023-08-31T10:31:02;24.90;90.10
22456;DHT22;11395;53.204;6.502;2023-08-31T10:33:34;24.90;90.00
22456;DHT22;11395;53.204;6.502;2023-08-31T10:36:01;25.00;90.70
22456;DHT22;11395;53.204;6.502;2023-08-31T10:38:30;25.10;90.00
22456;DHT22;11395;53.204;6.502;2023-08-31T10:43:57;25.10;90.70
22456;DHT22;11395;53.204;6.502;2023-08-31T10:48:58;25.10;89.20
22456;DHT22;11395;53.204;6.502;2023-08-31T10:51:26;24.90;89.40
22456;DHT22;11395;53.204;6.502;2023-08-31T10:54:03;24.90;90.50
22456;DHT22;11395;53.204;6.502;2023-08-31T10:56:30;24.90;91.20
22456;DHT22;11395;53.204;6.502;2023-08-31T10:59:01;24.80;90.20
22456;DHT22;11395;53.204;6.502;2023-08-31T11:01:52;24.70;91.60
22456;DHT22;11395;53.204;6.502;2023-08-31T11:04:24;24.70;91.80
22456;DHT22;11395;53.204;6.502;2023-08-31T11:09:41;24.60;90.20
22456;DHT22;11395;53.204;6.502;2023-08-31T11:12:08;24.70;92.40
22456;DHT22;11395;53.204;6.502;2023-08-31T11:14:34;24.70;90.20
22456;DHT22;11395;53.204;6.502;2023-08-31T11:17:01;24.70;90.10
22456;DHT22;11395;53.204;6.502;2023-08-31T11:19:28;24.70;88.80
22456;DHT22;11395;53.204;6.502;2023-08-31T11:21:54;24.70;89.10
22456;DHT22;11395;53.204;6.502;2023-08-31T11:24:21;24.80;90.90
22456;DHT22;11395;53.204;6.502;2023-08-31T11:26:51;24.70;89.90
22456;DHT22;11395;53.204;6.502;2023-08-31T11:29:17;24.70;90.10
22456;DHT22;11395;53.204;6.502;2023-08-31T11:31:44;24.50;88.10
22456;DHT22;11395;53.204;6.502;2023-08-31T11:34:17;24.70;88.30
22456;DHT22;11395;53.204;6.502;2023-08-31T11:36:45;24.70;90.10
22456;DHT22;11395;53.204;6.502;2023-08-31T11:39:12;24.70;88.80
22456;DHT22;11395;53.204;6.502;2023-08-31T11:41:40;24.70;90.80
22456;DHT22;11395;53.204;6.502;2023-08-31T11:44:09;24.70;90.00
22456;DHT22;11395;53.204;6.502;2023-08-31T11:46:36;24.80;90.60
22456;DHT22;11395;53.204;6.502;2023-08-31T11:49:03;24.90;90.70
22456;DHT22;11395;53.204;6.502;2023-08-31T11:51:34;24.80;90.70
22456;DHT22;11395;53.204;6.502;2023-08-31T11:54:01;24.90;92.30
22456;DHT22;11395;53.204;6.502;2023-08-31T11:56:44;24.90;93.00
22456;DHT22;11395;53.204;6.502;2023-08-31T11:59:14;24.90;91.10
22456;DHT22;11395;53.204;6.502;2023-08-31T12:01:42;24.80;92.30
22456;DHT22;11395;53.204;6.502;2023-08-31T12:04:13;24.90;91.40
22456;DHT22;11395;53.204;6.502;2023-08-31T12:06:39;24.90;93.00
22456;DHT22;11395;53.204;6.502;2023-08-31T12:09:08;24.90;92.80
22456;DHT22;11395;53.204;6.502;2023-08-31T12:11:35;24.90;92.10
22456;DHT22;11395;53.204;6.502;2023-08-31T12:14:19;25.00;92.50
22456;DHT22;11395;53.204;6.502;2023-08-31T12:16:46;25.00;93.30
22456;DHT22;11395;53.204;6.502;2023-08-31T12:19:13;25.00;92.50
22456;DHT22;11395;53.204;6.502;2023-08-31T12:21:41;24.90;92.30
22456;DHT22;11395;53.204;6.502;2023-08-31T12:24:07;24.90;92.50
22456;DHT22;11395;53.204;6.502;2023-08-31T12:26:34;24.90;91.30
22456;DHT22;11395;53.204;6.502;2023-08-31T12:29:01;24.90;90.90
22456;DHT22;11395;53.204;6.502;2023-08-31T12:31:30;24.90;90.70
22456;DHT22;11395;53.204;6.502;2023-08-31T12:33:57;24.90;90.80
22456;DHT22;11395;53.204;6.502;2023-08-31T12:36:23;24.90;90.80
22456;DHT22;11395;53.204;6.502;2023-08-31T12:38:49;24.90;90.90
22456;DHT22;11395;53.204;6.502;2023-08-31T12:41:16;24.80;91.10
22456;DHT22;11395;53.204;6.502;2023-08-31T12:43:43;24.80;91.50
22456;DHT22;11395;53.204;6.502;2023-08-31T12:46:09;24.80;91.20
22456;DHT22;11395;53.204;6.502;2023-08-31T12:48:35;24.80;91.80
22456;DHT22;11395;53.204;6.502;2023-08-31T12:51:02;24.90;91.00
22456;DHT22;11395;53.204;6.502;2023-08-31T12:53:28;24.90;91.10
22456;DHT22;11395;53.204;6.502;2023-08-31T12:55:54;24.90;91.40
22456;DHT22;11395;53.204;6.502;2023-08-31T12:58:20;24.90;92.00
22456;DHT22;11395;53.204;6.502;2023-08-31T13:00:47;24.90;92.10
22456;DHT22;11395;53.204;6.502;2023-08-31T13:03:15;24.90;92.50
22456;DHT22;11395;53.204;6.502;2023-08-31T13:05:41;24.90;91.50
22456;DHT22;11395;53.204;6.502;2023-08-31T13:08:08;25.00;91.50
22456;DHT22;11395;53.204;6.502;2023-08-31T13:10:37;25.00;92.80
22456;DHT22;11395;53.204;6.502;2023-08-31T13:13:03;25.00;93.10
22456;DHT22;11395;53.204;6.502;2023-08-31T13:15:31;25.00;91.20
22456;DHT22;11395;53.204;6.502;2023-08-31T13:17:59;25.00;93.90
22456;DHT22;11395;53.204;6.502;2023-08-31T13:20:25;24.90;93.90
22456;DHT22;11395;53.204;6.502;2023-08-31T13:22:53;24.90;94.10
22456;DHT22;11395;53.204;6.502;2023-08-31T13:25:19;24.90;96.80
22456;DHT22;11395;53.204;6.502;2023-08-31T13:27:45;24.90;95.10
22456;DHT22;11395;53.204;6.502;2023-08-31T13:30:11;24.50;99.90
22456;DHT22;11395;53.204;6.502;2023-08-31T13:35:05;24.90;96.20
22456;DHT22;11395;53.204;6.502;2023-08-31T13:40:01;26.50;95.30
22456;DHT22;11395;53.204;6.502;2023-08-31T13:42:33;25.10;91.70
22456;DHT22;11395;53.204;6.502;2023-08-31T13:45:01;25.10;92.30
22456;DHT22;11395;53.204;6.502;2023-08-31T13:47:27;25.30;93.30
22456;DHT22;11395;53.204;6.502;2023-08-31T13:49:53;25.10;94.20
22456;DHT22;11395;53.204;6.502;2023-08-31T13:52:19;25.10;95.00
22456;DHT22;11395;53.204;6.502;2023-08-31T13:54:47;25.10;94.40
22456;DHT22;11395;53.204;6.502;2023-08-31T13:57:13;25.10;93.10
22456;DHT22;11395;53.204;6.502;2023-08-31T13:59:44;25.20;93.40
22456;DHT22;11395;53.204;6.502;2023-08-31T14:02:10;25.10;93.20
22456;DHT22;11395;53.204;6.502;2023-08-31T14:04:36;25.10;95.80
22456;DHT22;11395;53.204;6.502;2023-08-31T14:07:02;25.10;98.70
22456;DHT22;11395;53.204;6.502;2023-08-31T14:09:29;25.10;94.70
22456;DHT22;11395;53.204;6.502;2023-08-31T14:11:55;25.10;94.80
22456;DHT22;11395;53.204;6.502;2023-08-31T14:14:23;24.90;94.20
22456;DHT22;11395;53.204;6.502;2023-08-31T14:16:50;25.00;94.80
22456;DHT22;11395;53.204;6.502;2023-08-31T14:19:16;25.10;94.50
22456;DHT22;11395;53.204;6.502;2023-08-31T14:21:42;25.10;94.70
22456;DHT22;11395;53.204;6.502;2023-08-31T14:24:08;25.10;94.10
22456;DHT22;11395;53.204;6.502;2023-08-31T14:26:34;25.10;93.50
22456;DHT22;11395;53.204;6.502;2023-08-31T14:29:01;25.10;99.30
22456;DHT22;11395;53.204;6.502;2023-08-31T14:31:28;25.20;97.50
22456;DHT22;11395;53.204;6.502;2023-08-31T14:33:54;25.10;97.20
22456;DHT22;11395;53.204;6.502;2023-08-31T14:38:48;24.90;99.90
22456;DHT22;11395;53.204;6.502;2023-08-31T14:41:14;25.10;94.90
22456;DHT22;11395;53.204;6.502;2023-08-31T14:43:40;25.10;95.10
22456;DHT22;11395;53.204;6.502;2023-08-31T14:46:06;25.10;96.80
22456;DHT22;11395;53.204;6.502;2023-08-31T14:50:59;25.10;97.60
22456;DHT22;11395;53.204;6.502;2023-08-31T14:55:53;25.00;99.90
22456;DHT22;11395;53.204;6.502;2023-08-31T14:58:19;24.90;95.30
22456;DHT22;11395;53.204;6.502;2023-08-31T15:00:45;24.80;95.70
22456;DHT22;11395;53.204;6.502;2023-08-31T15:03:12;24.80;95.80
22456;DHT22;11395;53.204;6.502;2023-08-31T15:05:38;24.80;99.50
22456;DHT22;11395;53.204;6.502;2023-08-31T15:13:01;24.70;99.30
22456;DHT22;11395;53.204;6.502;2023-08-31T15:15:28;24.70;97.40
22456;DHT22;11395;53.204;6.502;2023-08-31T15:20:23;24.60;99.90
22456;DHT22;11395;53.204;6.502;2023-08-31T15:22:50;24.70;95.50
22456;DHT22;11395;53.204;6.502;2023-08-31T15:25:16;24.60;96.60
22456;DHT22;11395;53.204;6.502;2023-08-31T15:27:42;24.70;94.90
22456;DHT22;11395;53.204;6.502;2023-08-31T15:30:09;24.70;94.60
22456;DHT22;11395;53.204;6.502;2023-08-31T15:32:36;24.70;97.60
22456;DHT22;11395;53.204;6.502;2023-08-31T15:35:04;24.70;95.10
22456;DHT22;11395;53.204;6.502;2023-08-31T15:37:31;24.70;97.30
22456;DHT22;11395;53.204;6.502;2023-08-31T15:39:57;24.60;97.20
22456;DHT22;11395;53.204;6.502;2023-08-31T15:42:25;24.60;96.80
22456;DHT22;11395;53.204;6.502;2023-08-31T15:47:20;24.60;97.00
22456;DHT22;11395;53.204;6.502;2023-08-31T15:49:46;24.60;98.10
22456;DHT22;11395;53.204;6.502;2023-08-31T15:52:13;24.60;99.10
22456;DHT22;11395;53.204;6.502;2023-08-31T15:54:39;24.50;98.70
22456;DHT22;11395;53.204;6.502;2023-08-31T15:57:05;24.50;98.00
22456;DHT22;11395;53.204;6.502;2023-08-31T15:59:31;24.50;97.50
22456;DHT22;11395;53.204;6.502;2023-08-31T16:06:51;25.20;99.90
22456;DHT22;11395;53.204;6.502;2023-08-31T16:09:17;24.40;95.20
22456;DHT22;11395;53.204;6.502;2023-08-31T16:11:43;24.40;95.10
22456;DHT22;11395;53.204;6.502;2023-08-31T16:14:10;24.50;93.10
22456;DHT22;11395;53.204;6.502;2023-08-31T16:16:36;24.60;93.00
22456;DHT22;11395;53.204;6.502;2023-08-31T16:19:04;24.50;93.00
22456;DHT22;11395;53.204;6.502;2023-08-31T16:21:30;24.50;93.00
22456;DHT22;11395;53.204;6.502;2023-08-31T16:23:56;24.50;94.10
22456;DHT22;11395;53.204;6.502;2023-08-31T16:26:22;24.50;92.60
22456;DHT22;11395;53.204;6.502;2023-08-31T16:28:49;24.40;92.60
22456;DHT22;11395;53.204;6.502;2023-08-31T16:31:15;24.40;93.50